All
Maitland Airport (Maitland, New South Wales) MTL Weather
|
Maitland, New South Wales (MTL / YMND)
Clear skies
Windy |
|
84 °F |
MTL Terminal Area Forecast
| Here is the undecoded forecast: 2026/09/05 00:30 YMND 050030Z 0502/0514 35014KT CAVOK BECMG 0503/0504 31018G33KT CAVOK FM050800 32014KT CAVOK PROB30 INTER 0508/0511 VRB30G50KT 5000 TSRA SCT100CB RMK FM050200 SEV TURB BLW 5000FT T 27 31 26 22 Q 1012 1009 1009 1009 |
Recent MTL METAR history
| Date | Time (AEST) | Flight Rules | Wind Dir. | Speed | Type | Height AGL (ft) | Visibility | Temp (°C) | Temp (°F) | Dew Point (°C) | Dew Point (°F) | Rel. Humid. | Pressure | Density Altitude | Remarks |
|---|---|---|---|---|---|---|---|---|---|---|---|---|---|---|---|
| 05-Sep | 05:00PM | VFR | 330° | 11 kt | 10000 meters | 29° | 84° | 8° | 46° | 27% | 1007 mb | 1,948 ft | |||
| 05-Sep | 04:00PM | VFR | 330° | 16 kt | 10000 meters | 30° | 86° | 8° | 46° | 25% | 1007 mb | 2,068 ft | Wind gusting to 27 KT | ||
| 05-Sep | 03:00PM | VFR | 310° | 17 kt | 10000 meters | 31° | 87° | 8° | 46° | 24% | 1008 mb | 2,159 ft | Wind gusting to 31 KT | ||
| 05-Sep | 02:00PM | VFR | 310° | 15 kt | 10000 meters | 31° | 87° | 8° | 46° | 24% | 1009 mb | 2,129 ft | Wind gusting to 26 KT | ||
| 05-Sep | 01:00PM | VFR | 330° | 11 kt | 10000 meters | 31° | 87° | 8° | 46° | 24% | 1010 mb | 2,100 ft | |||
| 05-Sep | 12:00PM | VFR | 250° | 3 kt | 10000 meters | 28° | 82° | 11° | 51° | 35% | 1012 mb | 1,681 ft | |||
| 05-Sep | 11:00AM | VFR | 320° | 4 kt | 10000 meters | 25° | 77° | 10° | 50° | 39% | 1014 mb | 1,262 ft | |||
| 05-Sep | 10:00AM | VFR | 300° | 4 kt | 10000 meters | 23° | 73° | 9° | 48° | 41% | 1015 mb | 992 ft | |||
| 05-Sep | 09:00AM | VFR | 310° | 6 kt | 10000 meters | 21° | 69° | 9° | 48° | 46% | 1016 mb | 723 ft | |||
| 05-Sep | 08:00AM | VFR | 310° | 6 kt | 10000 meters | 18° | 64° | 10° | 50° | 59% | 1017 mb | 333 ft | |||
| 05-Sep | 07:00AM | VFR | 280° | 3 kt | 10000 meters | 16° | 60° | 9° | 48° | 63% | 1017 mb | 93 ft | |||
| 05-Sep | 06:00AM | VFR | 290° | 6 kt | 10000 meters | 16° | 60° | 8° | 46° | 59% | 1017 mb | 93 ft | |||
| 05-Sep | 05:00AM | VFR | 280° | 6 kt | 10000 meters | 15° | 59° | 8° | 46° | 63% | 1017 mb | -27 ft | |||
| 05-Sep | 04:00AM | VFR | 290° | 5 kt | 10000 meters | 15° | 59° | 8° | 46° | 63% | 1016 mb | 3 ft | |||
| 05-Sep | 03:00AM | VFR | Calm | 10000 meters | 11° | 51° | 8° | 46° | 82% | 1017 mb | -507 ft | ||||
| 05-Sep | 02:00AM | VFR | 280° | 3 kt | 10000 meters | 12° | 53° | 7° | 44° | 71% | 1018 mb | -417 ft | |||
| 05-Sep | 01:00AM | VFR | 270° | 5 kt | 10000 meters | 15° | 59° | 7° | 44° | 59% | 1018 mb | -57 ft | |||
| 05-Sep | 12:00AM | VFR | 290° | 5 kt | 10000 meters | 15° | 59° | 7° | 44° | 59% | 1018 mb | -57 ft | |||
| 04-Sep | 11:00PM | VFR | 270° | 4 kt | 10000 meters | 14° | 57° | 8° | 46° | 67% | 1019 mb | -206 ft | |||
| 04-Sep | 10:00PM | VFR | 270° | 3 kt | 10000 meters | 13° | 55° | 9° | 48° | 77% | 1019 mb | -326 ft | |||
| 04-Sep | 09:00PM | VFR | 180° | 5 kt | 10000 meters | 13° | 55° | 11° | 51° | 88% | 1019 mb | -326 ft | |||
| 04-Sep | 08:00PM | VFR | 110° | 1 kt | 10000 meters | 13° | 55° | 9° | 48° | 77% | 1018 mb | -297 ft | |||
| 04-Sep | 07:00PM | VFR | 110° | 3 kt | 10000 meters | 16° | 60° | 12° | 53° | 77% | 1017 mb | 93 ft | |||
| 04-Sep | 06:00PM | VFR | 340° | 2 kt | 10000 meters | 18° | 64° | 9° | 48° | 56% | 1017 mb | 333 ft |
Login
| Your browser is unsupported. upgrade your browser |
